sensor_id;sensor_type;location;lat;lon;timestamp;temperature;humidity
81630;DHT22;71039;49.500;10.418;2024-03-17T00:02:06;7.80;57.70
81630;DHT22;71039;49.500;10.418;2024-03-17T00:04:32;7.80;57.90
81630;DHT22;71039;49.500;10.418;2024-03-17T00:06:57;7.80;58.20
81630;DHT22;71039;49.500;10.418;2024-03-17T00:09:23;7.80;58.30
81630;DHT22;71039;49.500;10.418;2024-03-17T00:11:49;7.70;58.50
81630;DHT22;71039;49.500;10.418;2024-03-17T00:14:14;7.80;58.60
81630;DHT22;71039;49.500;10.418;2024-03-17T00:16:40;7.70;58.70
81630;DHT22;71039;49.500;10.418;2024-03-17T00:19:05;7.80;58.80
81630;DHT22;71039;49.500;10.418;2024-03-17T00:21:31;7.80;58.90
81630;DHT22;71039;49.500;10.418;2024-03-17T00:23:56;7.80;58.90
81630;DHT22;71039;49.500;10.418;2024-03-17T00:26:22;7.80;59.00
81630;DHT22;71039;49.500;10.418;2024-03-17T00:28:47;7.80;59.00
81630;DHT22;71039;49.500;10.418;2024-03-17T00:31:13;7.80;59.00
81630;DHT22;71039;49.500;10.418;2024-03-17T00:33:39;7.80;59.00
81630;DHT22;71039;49.500;10.418;2024-03-17T00:36:04;7.80;59.10
81630;DHT22;71039;49.500;10.418;2024-03-17T00:38:30;7.90;59.10
81630;DHT22;71039;49.500;10.418;2024-03-17T00:40:56;7.90;59.10
81630;DHT22;71039;49.500;10.418;2024-03-17T00:43:21;7.90;59.20
81630;DHT22;71039;49.500;10.418;2024-03-17T00:45:53;8.00;59.10
81630;DHT22;71039;49.500;10.418;2024-03-17T00:48:18;8.00;59.10
81630;DHT22;71039;49.500;10.418;2024-03-17T00:50:44;8.00;59.10
81630;DHT22;71039;49.500;10.418;2024-03-17T00:53:10;8.00;59.10
81630;DHT22;71039;49.500;10.418;2024-03-17T00:55:35;8.00;59.10
81630;DHT22;71039;49.500;10.418;2024-03-17T00:58:01;8.00;59.20
81630;DHT22;71039;49.500;10.418;2024-03-17T01:00:26;8.00;59.20
81630;DHT22;71039;49.500;10.418;2024-03-17T01:02:52;8.00;59.20
81630;DHT22;71039;49.500;10.418;2024-03-17T01:05:17;8.10;59.30
81630;DHT22;71039;49.500;10.418;2024-03-17T01:07:43;8.10;59.30
81630;DHT22;71039;49.500;10.418;2024-03-17T01:10:09;8.10;59.30
81630;DHT22;71039;49.500;10.418;2024-03-17T01:12:35;8.10;59.40
81630;DHT22;71039;49.500;10.418;2024-03-17T01:15:03;8.10;59.40
81630;DHT22;71039;49.500;10.418;2024-03-17T01:17:29;8.10;59.30
81630;DHT22;71039;49.500;10.418;2024-03-17T01:19:54;8.20;59.20
81630;DHT22;71039;49.500;10.418;2024-03-17T01:22:20;8.20;59.10
81630;DHT22;71039;49.500;10.418;2024-03-17T01:24:45;8.20;59.00
81630;DHT22;71039;49.500;10.418;2024-03-17T01:27:11;8.20;59.00
81630;DHT22;71039;49.500;10.418;2024-03-17T01:29:36;8.20;58.90
81630;DHT22;71039;49.500;10.418;2024-03-17T01:32:02;8.20;58.90
81630;DHT22;71039;49.500;10.418;2024-03-17T01:34:27;8.20;58.90
81630;DHT22;71039;49.500;10.418;2024-03-17T01:36:53;8.20;58.80
81630;DHT22;71039;49.500;10.418;2024-03-17T01:39:18;8.20;58.70
81630;DHT22;71039;49.500;10.418;2024-03-17T01:41:44;8.10;58.50
81630;DHT22;71039;49.500;10.418;2024-03-17T01:44:22;8.10;58.50
81630;DHT22;71039;49.500;10.418;2024-03-17T01:46:48;8.10;58.50
81630;DHT22;71039;49.500;10.418;2024-03-17T01:49:13;8.00;58.30
81630;DHT22;71039;49.500;10.418;2024-03-17T01:51:39;8.00;58.30
81630;DHT22;71039;49.500;10.418;2024-03-17T01:54:05;8.00;58.30
81630;DHT22;71039;49.500;10.418;2024-03-17T01:56:31;7.90;58.30
81630;DHT22;71039;49.500;10.418;2024-03-17T01:58:57;7.80;58.30
81630;DHT22;71039;49.500;10.418;2024-03-17T02:01:23;7.80;58.40
81630;DHT22;71039;49.500;10.418;2024-03-17T02:03:49;7.70;58.50
81630;DHT22;71039;49.500;10.418;2024-03-17T02:06:14;7.60;58.50
81630;DHT22;71039;49.500;10.418;2024-03-17T02:08:47;7.60;58.60
81630;DHT22;71039;49.500;10.418;2024-03-17T02:11:24;7.50;58.70
81630;DHT22;71039;49.500;10.418;2024-03-17T02:13:49;7.50;58.80
81630;DHT22;71039;49.500;10.418;2024-03-17T02:16:15;7.40;58.80
81630;DHT22;71039;49.500;10.418;2024-03-17T02:18:40;7.40;58.80
81630;DHT22;71039;49.500;10.418;2024-03-17T02:21:06;7.30;58.90
81630;DHT22;71039;49.500;10.418;2024-03-17T02:23:33;7.30;58.90
81630;DHT22;71039;49.500;10.418;2024-03-17T02:25:59;7.20;59.00
81630;DHT22;71039;49.500;10.418;2024-03-17T02:28:24;7.20;59.10
81630;DHT22;71039;49.500;10.418;2024-03-17T02:30:50;7.20;59.10
81630;DHT22;71039;49.500;10.418;2024-03-17T02:33:15;7.20;59.10
81630;DHT22;71039;49.500;10.418;2024-03-17T02:35:41;7.00;59.10
81630;DHT22;71039;49.500;10.418;2024-03-17T02:38:06;7.00;59.10
81630;DHT22;71039;49.500;10.418;2024-03-17T02:40:32;7.00;59.10
81630;DHT22;71039;49.500;10.418;2024-03-17T02:42:57;7.00;59.10
81630;DHT22;71039;49.500;10.418;2024-03-17T02:45:23;7.00;59.20
81630;DHT22;71039;49.500;10.418;2024-03-17T02:47:48;6.90;59.20
81630;DHT22;71039;49.500;10.418;2024-03-17T02:50:14;6.90;59.30
81630;DHT22;71039;49.500;10.418;2024-03-17T02:52:39;6.80;59.30
81630;DHT22;71039;49.500;10.418;2024-03-17T02:55:05;6.80;59.30
81630;DHT22;71039;49.500;10.418;2024-03-17T02:57:31;6.70;59.40
81630;DHT22;71039;49.500;10.418;2024-03-17T02:59:57;6.70;59.30
81630;DHT22;71039;49.500;10.418;2024-03-17T03:02:23;6.70;59.40
81630;DHT22;71039;49.500;10.418;2024-03-17T03:04:48;6.60;59.40
81630;DHT22;71039;49.500;10.418;2024-03-17T03:07:14;6.50;59.40
81630;DHT22;71039;49.500;10.418;2024-03-17T03:09:40;6.50;59.50
81630;DHT22;71039;49.500;10.418;2024-03-17T03:12:05;6.50;59.60
81630;DHT22;71039;49.500;10.418;2024-03-17T03:14:31;6.40;59.70
81630;DHT22;71039;49.500;10.418;2024-03-17T03:16:57;6.40;59.90
81630;DHT22;71039;49.500;10.418;2024-03-17T03:19:22;6.40;60.00
81630;DHT22;71039;49.500;10.418;2024-03-17T03:21:48;6.30;60.20
81630;DHT22;71039;49.500;10.418;2024-03-17T03:24:14;6.30;60.30
81630;DHT22;71039;49.500;10.418;2024-03-17T03:26:40;6.30;60.50
81630;DHT22;71039;49.500;10.418;2024-03-17T03:29:05;6.30;60.60
81630;DHT22;71039;49.500;10.418;2024-03-17T03:31:32;6.30;60.70
81630;DHT22;71039;49.500;10.418;2024-03-17T03:33:57;6.30;60.80
81630;DHT22;71039;49.500;10.418;2024-03-17T03:36:23;6.30;60.90
81630;DHT22;71039;49.500;10.418;2024-03-17T03:38:48;6.40;60.90
81630;DHT22;71039;49.500;10.418;2024-03-17T03:41:15;6.40;61.00
81630;DHT22;71039;49.500;10.418;2024-03-17T03:43:41;6.40;61.00
81630;DHT22;71039;49.500;10.418;2024-03-17T03:46:07;6.40;61.10
81630;DHT22;71039;49.500;10.418;2024-03-17T03:48:33;6.40;61.10
81630;DHT22;71039;49.500;10.418;2024-03-17T03:50:59;6.50;61.20
81630;DHT22;71039;49.500;10.418;2024-03-17T03:53:28;6.50;61.20
81630;DHT22;71039;49.500;10.418;2024-03-17T03:55:53;6.50;61.20
81630;DHT22;71039;49.500;10.418;2024-03-17T03:58:19;6.50;61.30
81630;DHT22;71039;49.500;10.418;2024-03-17T04:00:44;6.50;61.40
81630;DHT22;71039;49.500;10.418;2024-03-17T04:03:10;6.50;61.40
81630;DHT22;71039;49.500;10.418;2024-03-17T04:05:35;6.60;61.40
81630;DHT22;71039;49.500;10.418;2024-03-17T04:08:01;6.60;61.40
81630;DHT22;71039;49.500;10.418;2024-03-17T04:10:26;6.60;61.40
81630;DHT22;71039;49.500;10.418;2024-03-17T04:12:52;6.70;61.40
81630;DHT22;71039;49.500;10.418;2024-03-17T04:15:18;6.70;61.30
81630;DHT22;71039;49.500;10.418;2024-03-17T04:17:44;6.70;61.20
81630;DHT22;71039;49.500;10.418;2024-03-17T04:20:10;6.80;61.20
81630;DHT22;71039;49.500;10.418;2024-03-17T04:22:36;6.80;61.20
81630;DHT22;71039;49.500;10.418;2024-03-17T04:25:02;6.80;61.20
81630;DHT22;71039;49.500;10.418;2024-03-17T04:27:27;6.80;61.20
81630;DHT22;71039;49.500;10.418;2024-03-17T04:29:54;6.80;61.20
81630;DHT22;71039;49.500;10.418;2024-03-17T04:32:20;6.80;61.10
81630;DHT22;71039;49.500;10.418;2024-03-17T04:34:46;6.80;61.10
81630;DHT22;71039;49.500;10.418;2024-03-17T04:37:11;6.80;60.90
81630;DHT22;71039;49.500;10.418;2024-03-17T04:39:37;6.90;60.90
81630;DHT22;71039;49.500;10.418;2024-03-17T04:42:02;6.90;60.90
81630;DHT22;71039;49.500;10.418;2024-03-17T04:44:28;6.80;60.80
81630;DHT22;71039;49.500;10.418;2024-03-17T04:46:54;6.80;60.80
81630;DHT22;71039;49.500;10.418;2024-03-17T04:49:19;6.80;60.80
81630;DHT22;71039;49.500;10.418;2024-03-17T04:51:45;6.80;60.80
81630;DHT22;71039;49.500;10.418;2024-03-17T04:54:10;6.80;60.90
81630;DHT22;71039;49.500;10.418;2024-03-17T04:56:36;6.80;60.90
81630;DHT22;71039;49.500;10.418;2024-03-17T04:59:01;6.80;60.90
81630;DHT22;71039;49.500;10.418;2024-03-17T05:01:27;6.80;60.90
81630;DHT22;71039;49.500;10.418;2024-03-17T05:03:52;6.80;61.00
81630;DHT22;71039;49.500;10.418;2024-03-17T05:06:18;6.80;61.00
81630;DHT22;71039;49.500;10.418;2024-03-17T05:08:43;6.80;61.00
81630;DHT22;71039;49.500;10.418;2024-03-17T05:11:09;6.80;61.00
81630;DHT22;71039;49.500;10.418;2024-03-17T05:13:36;6.80;61.10
81630;DHT22;71039;49.500;10.418;2024-03-17T05:16:02;6.80;61.10
81630;DHT22;71039;49.500;10.418;2024-03-17T05:18:27;6.80;61.00
81630;DHT22;71039;49.500;10.418;2024-03-17T05:21:00;6.80;60.90
81630;DHT22;71039;49.500;10.418;2024-03-17T05:23:44;6.80;60.90
81630;DHT22;71039;49.500;10.418;2024-03-17T05:26:10;6.80;61.10
81630;DHT22;71039;49.500;10.418;2024-03-17T05:28:35;6.80;60.90
81630;DHT22;71039;49.500;10.418;2024-03-17T05:31:01;6.80;61.00
81630;DHT22;71039;49.500;10.418;2024-03-17T05:33:26;6.70;61.10
81630;DHT22;71039;49.500;10.418;2024-03-17T05:35:54;6.80;61.10
81630;DHT22;71039;49.500;10.418;2024-03-17T05:38:20;6.70;61.10
81630;DHT22;71039;49.500;10.418;2024-03-17T05:40:56;6.70;61.20
81630;DHT22;71039;49.500;10.418;2024-03-17T05:43:30;6.70;61.30
81630;DHT22;71039;49.500;10.418;2024-03-17T05:46:00;6.70;61.30
81630;DHT22;71039;49.500;10.418;2024-03-17T05:48:25;6.70;61.40
81630;DHT22;71039;49.500;10.418;2024-03-17T05:50:51;6.70;61.40
81630;DHT22;71039;49.500;10.418;2024-03-17T05:53:17;6.80;61.50
81630;DHT22;71039;49.500;10.418;2024-03-17T05:55:43;6.70;61.50
81630;DHT22;71039;49.500;10.418;2024-03-17T05:58:08;6.80;61.30
81630;DHT22;71039;49.500;10.418;2024-03-17T06:00:35;6.80;61.40
81630;DHT22;71039;49.500;10.418;2024-03-17T06:03:01;6.80;61.40
81630;DHT22;71039;49.500;10.418;2024-03-17T06:05:26;6.80;61.50
81630;DHT22;71039;49.500;10.418;2024-03-17T06:07:52;6.80;61.50
81630;DHT22;71039;49.500;10.418;2024-03-17T06:10:17;6.80;61.60
81630;DHT22;71039;49.500;10.418;2024-03-17T06:12:43;6.80;61.70
81630;DHT22;71039;49.500;10.418;2024-03-17T06:15:09;6.80;61.80
81630;DHT22;71039;49.500;10.418;2024-03-17T06:17:34;6.90;61.90
81630;DHT22;71039;49.500;10.418;2024-03-17T06:20:00;6.90;62.00
81630;DHT22;71039;49.500;10.418;2024-03-17T06:22:26;6.90;62.10
81630;DHT22;71039;49.500;10.418;2024-03-17T06:24:51;7.00;62.00
81630;DHT22;71039;49.500;10.418;2024-03-17T06:27:17;7.00;62.10
81630;DHT22;71039;49.500;10.418;2024-03-17T06:29:42;7.00;62.10
81630;DHT22;71039;49.500;10.418;2024-03-17T06:32:08;7.00;62.20
81630;DHT22;71039;49.500;10.418;2024-03-17T06:34:33;7.00;62.30
81630;DHT22;71039;49.500;10.418;2024-03-17T06:36:59;7.20;62.30
81630;DHT22;71039;49.500;10.418;2024-03-17T06:39:24;7.20;62.20
81630;DHT22;71039;49.500;10.418;2024-03-17T06:41:50;7.20;62.20
81630;DHT22;71039;49.500;10.418;2024-03-17T06:44:15;7.20;62.20
81630;DHT22;71039;49.500;10.418;2024-03-17T06:46:41;7.30;62.30
81630;DHT22;71039;49.500;10.418;2024-03-17T06:49:06;7.40;62.60
81630;DHT22;71039;49.500;10.418;2024-03-17T06:51:32;7.40;62.60
81630;DHT22;71039;49.500;10.418;2024-03-17T06:53:57;7.50;62.60
81630;DHT22;71039;49.500;10.418;2024-03-17T06:56:23;7.60;62.60
81630;DHT22;71039;49.500;10.418;2024-03-17T06:58:48;7.60;62.50
81630;DHT22;71039;49.500;10.418;2024-03-17T07:01:14;7.70;62.40
81630;DHT22;71039;49.500;10.418;2024-03-17T07:03:39;7.80;62.50
81630;DHT22;71039;49.500;10.418;2024-03-17T07:06:05;7.80;62.30
81630;DHT22;71039;49.500;10.418;2024-03-17T07:08:31;7.90;62.20
81630;DHT22;71039;49.500;10.418;2024-03-17T07:10:57;8.00;62.10
81630;DHT22;71039;49.500;10.418;2024-03-17T07:13:23;8.00;61.90
81630;DHT22;71039;49.500;10.418;2024-03-17T07:15:48;8.10;62.70
81630;DHT22;71039;49.500;10.418;2024-03-17T07:18:14;8.20;62.80
81630;DHT22;71039;49.500;10.418;2024-03-17T07:20:39;8.30;64.00
81630;DHT22;71039;49.500;10.418;2024-03-17T07:23:05;8.50;67.00
81630;DHT22;71039;49.500;10.418;2024-03-17T07:25:30;8.80;68.40
81630;DHT22;71039;49.500;10.418;2024-03-17T07:27:56;9.10;67.70
81630;DHT22;71039;49.500;10.418;2024-03-17T07:30:21;9.40;66.90
81630;DHT22;71039;49.500;10.418;2024-03-17T07:32:47;9.80;65.80
81630;DHT22;71039;49.500;10.418;2024-03-17T07:35:12;10.10;65.60
81630;DHT22;71039;49.500;10.418;2024-03-17T07:37:38;10.40;65.90
81630;DHT22;71039;49.500;10.418;2024-03-17T07:40:04;10.80;66.10
81630;DHT22;71039;49.500;10.418;2024-03-17T07:42:32;11.10;66.10
81630;DHT22;71039;49.500;10.418;2024-03-17T07:44:57;11.50;66.30
81630;DHT22;71039;49.500;10.418;2024-03-17T07:47:23;11.90;67.20
81630;DHT22;71039;49.500;10.418;2024-03-17T07:49:49;12.50;68.10
81630;DHT22;71039;49.500;10.418;2024-03-17T07:52:14;12.90;68.20
81630;DHT22;71039;49.500;10.418;2024-03-17T07:54:40;13.50;67.50
81630;DHT22;71039;49.500;10.418;2024-03-17T07:57:05;14.00;66.90
81630;DHT22;71039;49.500;10.418;2024-03-17T07:59:31;14.60;66.10
81630;DHT22;71039;49.500;10.418;2024-03-17T08:01:56;15.20;65.70
81630;DHT22;71039;49.500;10.418;2024-03-17T08:04:22;15.80;65.00
81630;DHT22;71039;49.500;10.418;2024-03-17T08:06:47;16.40;64.50
81630;DHT22;71039;49.500;10.418;2024-03-17T08:09:13;17.00;63.90
81630;DHT22;71039;49.500;10.418;2024-03-17T08:11:38;17.50;63.00
81630;DHT22;71039;49.500;10.418;2024-03-17T08:14:04;18.20;62.10
81630;DHT22;71039;49.500;10.418;2024-03-17T08:16:29;18.80;60.50
81630;DHT22;71039;49.500;10.418;2024-03-17T08:18:56;19.30;59.70
81630;DHT22;71039;49.500;10.418;2024-03-17T08:21:21;19.90;59.00
81630;DHT22;71039;49.500;10.418;2024-03-17T08:23:47;20.40;58.20
81630;DHT22;71039;49.500;10.418;2024-03-17T08:26:12;20.90;57.20
81630;DHT22;71039;49.500;10.418;2024-03-17T08:28:38;21.40;56.10
81630;DHT22;71039;49.500;10.418;2024-03-17T08:31:04;21.70;55.10
81630;DHT22;71039;49.500;10.418;2024-03-17T08:33:30;22.10;53.80
81630;DHT22;71039;49.500;10.418;2024-03-17T08:38:26;22.80;51.70
81630;DHT22;71039;49.500;10.418;2024-03-17T08:40:52;23.10;51.10
81630;DHT22;71039;49.500;10.418;2024-03-17T08:43:22;23.30;50.70
81630;DHT22;71039;49.500;10.418;2024-03-17T08:45:55;23.60;49.90
81630;DHT22;71039;49.500;10.418;2024-03-17T08:48:21;23.80;48.80
81630;DHT22;71039;49.500;10.418;2024-03-17T08:50:53;24.00;48.30
81630;DHT22;71039;49.500;10.418;2024-03-17T08:53:19;24.30;47.00
81630;DHT22;71039;49.500;10.418;2024-03-17T08:55:45;24.40;47.80
81630;DHT22;71039;49.500;10.418;2024-03-17T08:58:11;24.60;47.50
81630;DHT22;71039;49.500;10.418;2024-03-17T09:00:36;24.80;46.40
81630;DHT22;71039;49.500;10.418;2024-03-17T09:03:03;25.00;45.90
81630;DHT22;71039;49.500;10.418;2024-03-17T09:05:28;25.00;45.40
81630;DHT22;71039;49.500;10.418;2024-03-17T09:07:54;25.20;45.30
81630;DHT22;71039;49.500;10.418;2024-03-17T09:10:19;25.30;45.00
81630;DHT22;71039;49.500;10.418;2024-03-17T09:12:45;25.40;44.80
81630;DHT22;71039;49.500;10.418;2024-03-17T09:15:10;25.50;44.30
81630;DHT22;71039;49.500;10.418;2024-03-17T09:17:36;25.60;43.90
81630;DHT22;71039;49.500;10.418;2024-03-17T09:20:01;25.60;42.20
81630;DHT22;71039;49.500;10.418;2024-03-17T09:22:27;25.60;41.20
81630;DHT22;71039;49.500;10.418;2024-03-17T09:24:52;25.60;41.90
81630;DHT22;71039;49.500;10.418;2024-03-17T09:27:18;25.60;41.20
81630;DHT22;71039;49.500;10.418;2024-03-17T09:29:43;25.60;41.50
81630;DHT22;71039;49.500;10.418;2024-03-17T09:32:10;25.60;40.70
81630;DHT22;71039;49.500;10.418;2024-03-17T09:34:36;25.50;40.30
81630;DHT22;71039;49.500;10.418;2024-03-17T09:37:01;25.50;41.30
81630;DHT22;71039;49.500;10.418;2024-03-17T09:39:27;25.50;40.50
81630;DHT22;71039;49.500;10.418;2024-03-17T09:41:52;25.40;39.70
81630;DHT22;71039;49.500;10.418;2024-03-17T09:44:18;25.20;39.20
81630;DHT22;71039;49.500;10.418;2024-03-17T09:46:43;25.00;39.10
81630;DHT22;71039;49.500;10.418;2024-03-17T09:49:15;24.80;38.90
81630;DHT22;71039;49.500;10.418;2024-03-17T09:51:41;24.60;38.40
81630;DHT22;71039;49.500;10.418;2024-03-17T09:54:18;24.40;38.90
81630;DHT22;71039;49.500;10.418;2024-03-17T09:56:43;24.20;38.00
81630;DHT22;71039;49.500;10.418;2024-03-17T09:59:09;24.00;38.40
81630;DHT22;71039;49.500;10.418;2024-03-17T10:01:34;23.80;38.60
81630;DHT22;71039;49.500;10.418;2024-03-17T10:04:00;23.60;38.60
81630;DHT22;71039;49.500;10.418;2024-03-17T10:06:26;23.40;38.60
81630;DHT22;71039;49.500;10.418;2024-03-17T10:08:53;23.30;38.50
81630;DHT22;71039;49.500;10.418;2024-03-17T10:11:23;23.10;38.30
81630;DHT22;71039;49.500;10.418;2024-03-17T10:13:59;23.00;37.80
81630;DHT22;71039;49.500;10.418;2024-03-17T10:16:26;22.80;37.40
81630;DHT22;71039;49.500;10.418;2024-03-17T10:19:15;22.60;38.20
81630;DHT22;71039;49.500;10.418;2024-03-17T10:21:45;22.40;37.00
81630;DHT22;71039;49.500;10.418;2024-03-17T10:24:24;22.20;38.00
81630;DHT22;71039;49.500;10.418;2024-03-17T10:26:54;22.00;38.20
81630;DHT22;71039;49.500;10.418;2024-03-17T10:32:35;21.70;38.30
81630;DHT22;71039;49.500;10.418;2024-03-17T10:34:35;21.60;38.50
81630;DHT22;71039;49.500;10.418;2024-03-17T10:37:07;21.50;38.70
81630;DHT22;71039;49.500;10.418;2024-03-17T10:39:33;21.40;38.40
81630;DHT22;71039;49.500;10.418;2024-03-17T10:42:03;21.30;38.40
81630;DHT22;71039;49.500;10.418;2024-03-17T10:44:34;21.10;38.30
81630;DHT22;71039;49.500;10.418;2024-03-17T10:47:01;21.00;38.30
81630;DHT22;71039;49.500;10.418;2024-03-17T10:49:34;20.90;38.30
81630;DHT22;71039;49.500;10.418;2024-03-17T10:52:05;20.70;38.20
81630;DHT22;71039;49.500;10.418;2024-03-17T10:54:33;20.60;38.20
81630;DHT22;71039;49.500;10.418;2024-03-17T10:57:40;20.50;38.50
81630;DHT22;71039;49.500;10.418;2024-03-17T11:00:09;20.30;38.00
81630;DHT22;71039;49.500;10.418;2024-03-17T11:02:35;20.10;38.40
81630;DHT22;71039;49.500;10.418;2024-03-17T11:07:30;19.90;38.70
81630;DHT22;71039;49.500;10.418;2024-03-17T11:09:57;19.80;39.00
81630;DHT22;71039;49.500;10.418;2024-03-17T11:17:45;19.50;39.10
81630;DHT22;71039;49.500;10.418;2024-03-17T11:20:27;19.50;39.50
81630;DHT22;71039;49.500;10.418;2024-03-17T11:22:56;19.50;38.90
81630;DHT22;71039;49.500;10.418;2024-03-17T11:27:53;19.40;39.40
81630;DHT22;71039;49.500;10.418;2024-03-17T11:36:36;19.30;38.90
81630;DHT22;71039;49.500;10.418;2024-03-17T11:39:09;19.20;38.80
81630;DHT22;71039;49.500;10.418;2024-03-17T11:41:41;19.30;39.40
81630;DHT22;71039;49.500;10.418;2024-03-17T11:44:24;19.20;39.80
81630;DHT22;71039;49.500;10.418;2024-03-17T11:47:03;19.20;39.50
81630;DHT22;71039;49.500;10.418;2024-03-17T11:49:36;19.20;39.70
81630;DHT22;71039;49.500;10.418;2024-03-17T11:52:03;19.30;39.90
81630;DHT22;71039;49.500;10.418;2024-03-17T11:54:31;19.30;40.00
81630;DHT22;71039;49.500;10.418;2024-03-17T11:57:10;19.30;40.00
81630;DHT22;71039;49.500;10.418;2024-03-17T11:59:37;19.30;39.50
81630;DHT22;71039;49.500;10.418;2024-03-17T12:02:20;19.40;39.90
81630;DHT22;71039;49.500;10.418;2024-03-17T12:04:46;19.40;39.70
81630;DHT22;71039;49.500;10.418;2024-03-17T12:07:16;19.40;40.00
81630;DHT22;71039;49.500;10.418;2024-03-17T12:09:46;19.40;39.80
81630;DHT22;71039;49.500;10.418;2024-03-17T12:12:22;19.40;40.10
81630;DHT22;71039;49.500;10.418;2024-03-17T12:14:49;19.50;39.90
81630;DHT22;71039;49.500;10.418;2024-03-17T12:17:23;19.50;39.90
81630;DHT22;71039;49.500;10.418;2024-03-17T12:19:49;19.50;39.40
81630;DHT22;71039;49.500;10.418;2024-03-17T12:22:20;19.50;39.80
81630;DHT22;71039;49.500;10.418;2024-03-17T12:24:45;19.50;39.90
81630;DHT22;71039;49.500;10.418;2024-03-17T12:27:24;19.50;40.20
81630;DHT22;71039;49.500;10.418;2024-03-17T12:29:53;19.60;40.00
81630;DHT22;71039;49.500;10.418;2024-03-17T12:32:21;19.70;40.00
81630;DHT22;71039;49.500;10.418;2024-03-17T12:34:50;19.70;39.90
81630;DHT22;71039;49.500;10.418;2024-03-17T12:37:20;19.70;39.80
81630;DHT22;71039;49.500;10.418;2024-03-17T12:39:46;19.80;39.50
81630;DHT22;71039;49.500;10.418;2024-03-17T12:42:13;19.80;39.50
81630;DHT22;71039;49.500;10.418;2024-03-17T12:44:47;19.80;39.00
81630;DHT22;71039;49.500;10.418;2024-03-17T12:47:26;19.80;39.00
81630;DHT22;71039;49.500;10.418;2024-03-17T12:49:54;19.70;38.90
81630;DHT22;71039;49.500;10.418;2024-03-17T12:52:21;19.70;39.00
81630;DHT22;71039;49.500;10.418;2024-03-17T12:55:18;19.70;39.10
81630;DHT22;71039;49.500;10.418;2024-03-17T12:57:44;19.60;38.50
81630;DHT22;71039;49.500;10.418;2024-03-17T13:00:17;19.50;39.30
81630;DHT22;71039;49.500;10.418;2024-03-17T13:02:44;19.50;39.00
81630;DHT22;71039;49.500;10.418;2024-03-17T13:05:17;19.50;39.30
81630;DHT22;71039;49.500;10.418;2024-03-17T13:07:44;19.50;39.30
81630;DHT22;71039;49.500;10.418;2024-03-17T13:10:10;19.50;39.40
81630;DHT22;71039;49.500;10.418;2024-03-17T13:12:35;19.40;39.50
81630;DHT22;71039;49.500;10.418;2024-03-17T13:15:01;19.40;39.60
81630;DHT22;71039;49.500;10.418;2024-03-17T13:17:27;19.40;39.60
81630;DHT22;71039;49.500;10.418;2024-03-17T13:19:52;19.40;39.60
81630;DHT22;71039;49.500;10.418;2024-03-17T13:22:18;19.40;39.50
81630;DHT22;71039;49.500;10.418;2024-03-17T13:24:43;19.40;39.60
81630;DHT22;71039;49.500;10.418;2024-03-17T13:27:09;19.40;39.60
81630;DHT22;71039;49.500;10.418;2024-03-17T13:29:35;19.40;39.60
81630;DHT22;71039;49.500;10.418;2024-03-17T13:32:00;19.40;39.70
81630;DHT22;71039;49.500;10.418;2024-03-17T13:34:26;19.40;39.70
81630;DHT22;71039;49.500;10.418;2024-03-17T13:36:54;19.40;39.80
81630;DHT22;71039;49.500;10.418;2024-03-17T13:39:20;19.40;39.70
81630;DHT22;71039;49.500;10.418;2024-03-17T13:41:45;19.40;39.80
81630;DHT22;71039;49.500;10.418;2024-03-17T13:44:11;19.40;39.80
81630;DHT22;71039;49.500;10.418;2024-03-17T13:46:37;19.50;39.80
81630;DHT22;71039;49.500;10.418;2024-03-17T13:49:07;19.40;39.90
81630;DHT22;71039;49.500;10.418;2024-03-17T13:51:33;19.50;39.80
81630;DHT22;71039;49.500;10.418;2024-03-17T13:53:58;19.50;39.90
81630;DHT22;71039;49.500;10.418;2024-03-17T13:56:24;19.50;39.80
81630;DHT22;71039;49.500;10.418;2024-03-17T13:58:50;19.50;39.80
81630;DHT22;71039;49.500;10.418;2024-03-17T14:01:16;19.50;39.70
81630;DHT22;71039;49.500;10.418;2024-03-17T14:03:41;19.50;39.60
81630;DHT22;71039;49.500;10.418;2024-03-17T14:06:07;19.60;39.50
81630;DHT22;71039;49.500;10.418;2024-03-17T14:08:33;19.60;39.60
81630;DHT22;71039;49.500;10.418;2024-03-17T14:10:58;19.60;39.50
81630;DHT22;71039;49.500;10.418;2024-03-17T14:13:24;19.60;39.10
81630;DHT22;71039;49.500;10.418;2024-03-17T14:15:49;19.50;39.10
81630;DHT22;71039;49.500;10.418;2024-03-17T14:18:15;19.50;39.00
81630;DHT22;71039;49.500;10.418;2024-03-17T14:20:40;19.50;39.20
81630;DHT22;71039;49.500;10.418;2024-03-17T14:23:06;19.50;39.20
81630;DHT22;71039;49.500;10.418;2024-03-17T14:25:31;19.50;39.30
81630;DHT22;71039;49.500;10.418;2024-03-17T14:27:57;19.40;39.00
81630;DHT22;71039;49.500;10.418;2024-03-17T14:30:22;19.40;39.10
81630;DHT22;71039;49.500;10.418;2024-03-17T14:32:48;19.40;39.10
81630;DHT22;71039;49.500;10.418;2024-03-17T14:35:17;19.30;39.10
81630;DHT22;71039;49.500;10.418;2024-03-17T14:37:44;19.30;39.10
81630;DHT22;71039;49.500;10.418;2024-03-17T14:40:12;19.20;39.20
81630;DHT22;71039;49.500;10.418;2024-03-17T14:42:37;19.20;39.10
81630;DHT22;71039;49.500;10.418;2024-03-17T14:45:03;19.20;39.10
81630;DHT22;71039;49.500;10.418;2024-03-17T14:47:29;19.10;39.20
81630;DHT22;71039;49.500;10.418;2024-03-17T14:49:54;19.10;39.30
81630;DHT22;71039;49.500;10.418;2024-03-17T14:52:20;19.00;39.20
81630;DHT22;71039;49.500;10.418;2024-03-17T14:54:45;18.90;39.00
81630;DHT22;71039;49.500;10.418;2024-03-17T14:57:11;18.90;39.10
81630;DHT22;71039;49.500;10.418;2024-03-17T14:59:36;18.80;39.20
81630;DHT22;71039;49.500;10.418;2024-03-17T15:02:02;18.80;39.30
81630;DHT22;71039;49.500;10.418;2024-03-17T15:04:27;18.70;39.30
81630;DHT22;71039;49.500;10.418;2024-03-17T15:06:53;18.60;39.40
81630;DHT22;71039;49.500;10.418;2024-03-17T15:09:18;18.60;39.40
81630;DHT22;71039;49.500;10.418;2024-03-17T15:11:45;18.50;39.50
81630;DHT22;71039;49.500;10.418;2024-03-17T15:14:10;18.50;39.50
81630;DHT22;71039;49.500;10.418;2024-03-17T15:16:36;18.40;39.50
81630;DHT22;71039;49.500;10.418;2024-03-17T15:19:02;18.40;39.60
81630;DHT22;71039;49.500;10.418;2024-03-17T15:21:27;18.30;39.60
81630;DHT22;71039;49.500;10.418;2024-03-17T15:23:53;18.30;39.60
81630;DHT22;71039;49.500;10.418;2024-03-17T15:26:18;18.20;39.70
81630;DHT22;71039;49.500;10.418;2024-03-17T15:28:44;18.10;39.70
81630;DHT22;71039;49.500;10.418;2024-03-17T15:31:10;18.10;39.60
81630;DHT22;71039;49.500;10.418;2024-03-17T15:33:36;18.00;39.40
81630;DHT22;71039;49.500;10.418;2024-03-17T15:36:04;18.00;39.50
81630;DHT22;71039;49.500;10.418;2024-03-17T15:38:36;17.90;39.60
81630;DHT22;71039;49.500;10.418;2024-03-17T15:41:06;17.80;39.70
81630;DHT22;71039;49.500;10.418;2024-03-17T15:43:35;17.80;39.80